»·PEaware :: N4GS KEMT-KSBA

N4GS :: KEMT-KSBA

FLIGHT INFORMATION

Flight Status: Arrived
Operator: Privately registered:
United States
More flights under this callsign
Pilot: Greg S. (16931)
Aircraft: PIPER PA-32 SARATOGA
(PA32)
More flights by this aircraft type
Origin: KEMT El Monte
United States
Destination: KSBA Santa Barbara Mun
United States
More flights between these airports :: More routes between these airports
Route: ELMOO V186 VNY V186 FIM KWANG
File this flight plan on PilotEdge
Remarks: None
Altitude:
(Current/Filed)
10,500ft
Speed:
(Current/Filed)
150kts
Departed: 31-Dec-17 11:18 AM
Arrived: 31-Dec-17 11:59 AM
Distance/Time
Traveled:
92nm/0:41
Distance/Time
To Go:
Arrived

Flight Plot

Page will automatically refresh every two minutes.

Flight plan parsing failed; only flown route is shown


Map Options




Map Legend


Flown Route
Filed Route
Departure Airport
Arrival Airport
Navaid (VOR, NDB)
Fix

Horizontal Profiles

Position Reports

Time Latitude Longitude Heading Altitude Ground
Speed
31-Dec-17 11:10 34.086046 -118.033299 25 289ft 0kts
31-Dec-17 11:11 34.086046 -118.033299 25 289ft 0kts
31-Dec-17 11:12 34.086046 -118.033299 25 289ft 0kts
31-Dec-17 11:13 34.086046 -118.033299 25 289ft 0kts
31-Dec-17 11:14 34.086046 -118.033299 25 289ft 0kts
31-Dec-17 11:15 34.086046 -118.033299 25 289ft 0kts
31-Dec-17 11:16 34.086046 -118.033299 25 289ft 0kts
31-Dec-17 11:17 34.086361 -118.033763 310 288ft 13kts
31-Dec-17 11:18 34.088640 -118.032721 22 291ft 17kts
31-Dec-17 11:19 34.090697 -118.031614 317 296ft 0kts
31-Dec-17 11:20 34.090697 -118.031614 317 296ft 0kts
31-Dec-17 11:21 34.090697 -118.031614 317 296ft 0kts
31-Dec-17 11:22 34.090736 -118.031661 311 295ft 6kts
31-Dec-17 11:23 34.090088 -118.032462 199 292ft 38kts
31-Dec-17 11:24 34.072335 -118.049234 238 1710ft 81kts
31-Dec-17 11:25 34.060095 -118.071802 208 3281ft 95kts
31-Dec-17 11:26 34.034476 -118.084105 225 4542ft 127kts
31-Dec-17 11:27 34.035655 -118.110579 295 5820ft 92kts
31-Dec-17 11:28 34.057728 -118.136789 314 7178ft 98kts
31-Dec-17 11:29 34.073636 -118.154229 7 8091ft 104kts
31-Dec-17 11:30 34.103852 -118.145858 338 9427ft 100kts
31-Dec-17 11:31 34.123123 -118.169653 305 10429ft 107kts
31-Dec-17 11:32 34.132309 -118.193799 283 10381ft 103kts
31-Dec-17 11:33 34.143795 -118.227712 290 10705ft 137kts
31-Dec-17 11:34 34.161751 -118.285940 291 10327ft 184kts
31-Dec-17 11:35 34.175313 -118.332961 290 10368ft 169kts
31-Dec-17 11:36 34.192480 -118.385314 290 10458ft 174kts
31-Dec-17 11:37 34.203599 -118.440894 285 10492ft 179kts
31-Dec-17 11:38 34.224893 -118.496153 300 10236ft 190kts
31-Dec-17 11:39 34.246424 -118.550966 287 10470ft 176kts
31-Dec-17 11:40 34.264032 -118.606182 293 10656ft 170kts
31-Dec-17 11:41 34.284608 -118.661648 296 10372ft 187kts
31-Dec-17 11:42 34.305604 -118.711547 288 10842ft 176kts
31-Dec-17 11:43 34.315326 -118.774201 279 10348ft 191kts
31-Dec-17 11:44 34.334352 -118.829559 312 10556ft 176kts
31-Dec-17 11:45 34.359191 -118.880309 306 10225ft 191kts
31-Dec-17 11:46 34.362271 -118.940609 246 10111ft 186kts
31-Dec-17 11:47 34.349539 -118.994842 274 10978ft 150kts
31-Dec-17 11:48 34.350475 -119.057193 267 10313ft 189kts
31-Dec-17 11:49 34.344911 -119.120997 255 10213ft 185kts
31-Dec-17 11:50 34.331391 -119.181206 257 10376ft 174kts
31-Dec-17 11:51 34.322379 -119.240077 265 10699ft 166kts
31-Dec-17 11:52 34.320811 -119.302410 276 10176ft 194kts
31-Dec-17 11:53 34.323831 -119.364384 274 10511ft 175kts
31-Dec-17 11:54 34.322926 -119.427466 263 10252ft 184kts
31-Dec-17 11:55 34.309158 -119.482578 254 8516ft 150kts
31-Dec-17 11:56 34.308999 -119.524070 289 6227ft 120kts
31-Dec-17 11:57 34.322363 -119.561252 301 3622ft 123kts
31-Dec-17 11:58 34.340320 -119.592692 306 2407ft 139kts
31-Dec-17 11:59 34.365336 -119.635888 300 2205ft 156kts
31-Dec-17 12:00 34.383334 -119.673316 289 677ft 142kts
31-Dec-17 12:01 34.390555 -119.726687 281 557ft 149kts
31-Dec-17 12:02 34.404884 -119.767843 299 644ft 126kts
31-Dec-17 12:03 34.418364 -119.802810 306 519ft 90kts
31-Dec-17 12:04 34.428124 -119.827679 271 122ft 75kts
31-Dec-17 12:05 34.427888 -119.841652 308 10ft 7kts
31-Dec-17 12:06 34.428229 -119.841891 333 10ft 0kts
31-Dec-17 12:07 34.428229 -119.841891 333 10ft 0kts
31-Dec-17 12:08 34.428935 -119.841312 91 10ft 11kts
31-Dec-17 12:09 34.430417 -119.839336 353 11ft 12kts
31-Dec-17 12:10 34.431230 -119.839546 235 12ft 0kts
31-Dec-17 12:11 34.431230 -119.839546 235 12ft 0kts

Navigation Log

Ident Type
Flight plan parsing failed, navigation log unavailable